»·PEaware :: N4657 L35-KLAS

N4657 :: L35-KLAS

FLIGHT INFORMATION

Flight Status: Arrived
Operator: Privately registered:
United States
More flights under this callsign
Pilot: Daniel P. (20187)
Aircraft: PILATUS PC-12 EAGLE
(PC12)
More flights by this aircraft type
Origin: L35 Big Bear City
United States
Destination: KLAS McCarran Intl
United States
More flights between these airports :: More routes between these airports
Route: +HEC CRESO4
File this flight plan on PilotEdge
Remarks:
Altitude:
(Current/Filed)
60ft
Speed:
(Current/Filed)
190kts
Departed: 21-Sep-18 12:51 PM
Arrived: 21-Sep-18 01:44 PM
Distance/Time
Traveled:
137nm/0:53
Distance/Time
To Go:
Arrived

Flight Plot

Page will automatically refresh every two minutes.

Flight plan parsing failed; only flown route is shown


Map Options




Map Legend


Flown Route
Filed Route
Departure Airport
Arrival Airport
Navaid (VOR, NDB)
Fix

Horizontal Profiles

Position Reports

Time Latitude Longitude Heading Altitude Ground
Speed
21-Sep-18 12:09 34.262192 -116.853979 86 6752ft 0kts
21-Sep-18 12:10 34.262192 -116.853979 86 6752ft 0kts
21-Sep-18 12:11 34.262192 -116.853979 86 6752ft 0kts
21-Sep-18 12:12 34.262192 -116.853979 86 6752ft 0kts
21-Sep-18 12:13 34.262192 -116.853979 86 6752ft 0kts
21-Sep-18 12:14 34.262192 -116.853979 86 6752ft 0kts
21-Sep-18 12:15 34.262192 -116.853979 86 6752ft 0kts
21-Sep-18 12:16 34.262192 -116.853979 86 6752ft 0kts
21-Sep-18 12:17 34.262192 -116.853979 86 6752ft 0kts
21-Sep-18 12:18 34.262192 -116.853979 86 6752ft 0kts
21-Sep-18 12:19 34.262192 -116.853979 86 6752ft 0kts
21-Sep-18 12:20 34.262192 -116.853979 86 6752ft 0kts
21-Sep-18 12:21 34.262192 -116.853979 86 6752ft 0kts
21-Sep-18 12:22 34.262192 -116.853979 86 6752ft 0kts
21-Sep-18 12:23 34.262192 -116.853979 86 6752ft 0kts
21-Sep-18 12:24 34.262192 -116.853979 86 6752ft 0kts
21-Sep-18 12:25 34.262192 -116.853979 86 6752ft 0kts
21-Sep-18 12:26 34.262192 -116.853979 86 6752ft 0kts
21-Sep-18 12:27 34.262192 -116.853979 86 6752ft 0kts
21-Sep-18 12:28 34.262192 -116.853979 86 6752ft 0kts
21-Sep-18 12:29 34.262192 -116.853979 86 6752ft 0kts
21-Sep-18 12:30 34.262192 -116.853979 86 6752ft 0kts
21-Sep-18 12:31 34.262192 -116.853979 86 6752ft 0kts
21-Sep-18 12:32 34.262192 -116.853979 86 6752ft 0kts
21-Sep-18 12:33 34.262192 -116.853979 86 6752ft 0kts
21-Sep-18 12:34 34.262192 -116.853979 86 6752ft 0kts
21-Sep-18 12:35 34.262192 -116.853979 86 6752ft 0kts
21-Sep-18 12:36 34.262192 -116.853979 86 6752ft 0kts
21-Sep-18 12:37 34.262192 -116.853979 86 6752ft 0kts
21-Sep-18 12:38 34.262192 -116.853979 86 6752ft 0kts
21-Sep-18 12:39 34.262192 -116.853979 86 6752ft 0kts
21-Sep-18 12:40 34.262192 -116.853979 86 6752ft 0kts
21-Sep-18 12:41 34.262192 -116.853978 86 6752ft 0kts
21-Sep-18 12:42 34.262192 -116.853978 86 6752ft 0kts
21-Sep-18 12:43 34.262192 -116.853978 86 6752ft 0kts
21-Sep-18 12:44 34.262192 -116.853978 86 6752ft 0kts
21-Sep-18 12:45 34.262192 -116.853978 86 6752ft 0kts
21-Sep-18 12:46 34.262192 -116.853978 86 6752ft 0kts
21-Sep-18 12:47 34.262431 -116.853625 1 6752ft 5kts
21-Sep-18 12:48 34.263264 -116.852090 89 6752ft 10kts
21-Sep-18 12:49 34.263279 -116.847904 90 6752ft 13kts
21-Sep-18 12:50 34.263154 -116.846824 90 6752ft 0kts
21-Sep-18 12:51 34.263154 -116.846824 90 6752ft 0kts
21-Sep-18 12:52 34.263821 -116.846615 271 6752ft 0kts
21-Sep-18 12:53 34.263077 -116.875143 266 7401ft 122kts
21-Sep-18 12:54 34.261603 -116.915171 266 9093ft 118kts
21-Sep-18 12:55 34.261085 -116.954074 266 10650ft 121kts
21-Sep-18 12:56 34.261568 -116.996224 266 11873ft 144kts
21-Sep-18 12:57 34.277058 -117.043201 351 11810ft 189kts
21-Sep-18 12:58 34.322786 -117.014532 59 11837ft 189kts
21-Sep-18 12:59 34.295775 -116.988273 201 11871ft 180kts
21-Sep-18 13:00 34.246543 -117.013644 203 11853ft 201kts
21-Sep-18 13:01 34.219605 -117.052287 288 11804ft 217kts
21-Sep-18 13:02 34.282280 -117.045340 33 11811ft 228kts
21-Sep-18 13:03 34.332663 -116.999605 38 11869ft 227kts
21-Sep-18 13:04 34.383185 -116.954936 32 12056ft 222kts
21-Sep-18 13:05 34.424255 -116.919079 44 12300ft 218kts
21-Sep-18 13:06 34.467101 -116.867319 44 12597ft 216kts
21-Sep-18 13:07 34.516169 -116.807572 44 12952ft 218kts
21-Sep-18 13:08 34.552505 -116.763210 44 12896ft 227kts
21-Sep-18 13:09 34.597375 -116.708356 44 12816ft 230kts
21-Sep-18 13:10 34.642347 -116.653289 44 12765ft 230kts
21-Sep-18 13:11 34.686997 -116.598531 44 12755ft 229kts
21-Sep-18 13:12 34.730685 -116.544878 44 13036ft 220kts
21-Sep-18 13:13 34.774464 -116.491016 44 13038ft 226kts
21-Sep-18 13:14 34.820933 -116.439235 38 13038ft 228kts
21-Sep-18 13:15 34.870122 -116.390009 38 13039ft 229kts
21-Sep-18 13:16 34.919257 -116.340779 39 13052ft 230kts
21-Sep-18 13:17 34.968604 -116.291224 40 13063ft 230kts
21-Sep-18 13:18 35.017974 -116.241542 41 13066ft 230kts
21-Sep-18 13:19 35.068064 -116.191029 41 13067ft 244kts
21-Sep-18 13:20 35.121225 -116.137297 41 13063ft 254kts
21-Sep-18 13:21 35.175661 -116.082226 41 13063ft 256kts
21-Sep-18 13:22 35.230073 -116.026663 45 13061ft 256kts
21-Sep-18 13:23 35.280584 -115.965293 46 13063ft 255kts
21-Sep-18 13:24 35.330669 -115.903686 46 13036ft 256kts
21-Sep-18 13:25 35.380778 -115.841930 46 13036ft 256kts
21-Sep-18 13:26 35.430928 -115.780005 46 13036ft 256kts
21-Sep-18 13:27 35.481047 -115.718001 46 13036ft 256kts
21-Sep-18 13:28 35.530990 -115.656099 46 13036ft 256kts
21-Sep-18 13:29 35.582154 -115.592501 46 12375ft 268kts
21-Sep-18 13:30 35.640754 -115.535539 32 11489ft 272kts
21-Sep-18 13:31 35.704938 -115.486803 32 10587ft 268kts
21-Sep-18 13:32 35.760032 -115.441389 50 10016ft 209kts
21-Sep-18 13:33 35.795617 -115.392142 50 10020ft 193kts
21-Sep-18 13:34 35.832679 -115.340348 51 10019ft 209kts
21-Sep-18 13:35 35.871431 -115.285877 51 10018ft 214kts
21-Sep-18 13:36 35.911469 -115.229343 51 9552ft 227kts
21-Sep-18 13:37 35.961541 -115.182941 21 8731ft 235kts
21-Sep-18 13:38 36.020244 -115.152801 31 7734ft 222kts
21-Sep-18 13:39 36.073469 -115.116310 31 6738ft 217kts
21-Sep-18 13:40 36.125751 -115.080565 31 5748ft 218kts
21-Sep-18 13:41 36.179829 -115.052928 337 4744ft 205kts
21-Sep-18 13:42 36.175567 -115.093892 212 4879ft 140kts
21-Sep-18 13:43 36.146658 -115.124950 219 4454ft 145kts
21-Sep-18 13:44 36.121959 -115.143729 199 3006ft 89kts
21-Sep-18 13:45 36.099353 -115.156634 199 2141ft 93kts
21-Sep-18 13:46 36.089327 -115.163287 294 2128ft 0kts
21-Sep-18 13:47 36.089547 -115.163890 296 2130ft 8kts
21-Sep-18 13:48 36.090980 -115.165226 51 2130ft 8kts
21-Sep-18 13:49 36.091268 -115.164855 70 2127ft 0kts
21-Sep-18 13:50 36.091268 -115.164855 70 2127ft 0kts
21-Sep-18 13:51 36.091268 -115.164855 70 2127ft 0kts
21-Sep-18 13:52 36.091268 -115.164855 70 2127ft 0kts
21-Sep-18 13:53 36.091268 -115.164855 70 2127ft 0kts
21-Sep-18 13:54 36.091268 -115.164855 70 2127ft 0kts
21-Sep-18 13:55 36.091268 -115.164855 70 2127ft 0kts
21-Sep-18 13:56 36.091268 -115.164855 70 2127ft 0kts
21-Sep-18 13:57 36.091268 -115.164855 70 2127ft 0kts
21-Sep-18 13:58 36.091268 -115.164855 70 2127ft 0kts
21-Sep-18 13:59 36.091268 -115.164855 70 2127ft 0kts
21-Sep-18 14:00 36.091268 -115.164855 70 2127ft 0kts

Navigation Log

Ident Type
Flight plan parsing failed, navigation log unavailable